Time;durP1;ratioP1;P1;durP2;ratioP2;P2;SDS_P1;SDS_P2;PMS_P1;PMS_P2;Temp;Humidity;BMP_temperature;BMP_pressure;BME280_temperature;BME280_humidity;BME280_pressure;Samples;Min_cycle;Max_cycle;Signal;HPM_P1;HPM_P2
2023/12/18 00:02:18;;;;;;;48.83;23.60;;;2.50;99.90;;;;;;5033862;28;20021;-79
2023/12/18 00:04:44;;;;;;;31.83;17.02;;;2.40;99.90;;;;;;5034084;28;20044;-79
2023/12/18 00:07:09;;;;;;;29.63;15.63;;;2.30;99.90;;;;;;5048902;28;20033;-78
2023/12/18 00:09:35;;;;;;;26.70;14.85;;;2.40;99.90;;;;;;5029585;28;20029;-77
2023/12/18 00:12:01;;;;;;;31.80;14.57;;;2.40;99.90;;;;;;5027231;28;20022;-79
2023/12/18 00:14:26;;;;;;;27.50;14.32;;;2.30;99.90;;;;;;5028825;28;20422;-79
2023/12/18 00:16:52;;;;;;;28.30;15.18;;;2.30;99.90;;;;;;5032625;28;20030;-79
2023/12/18 00:19:18;;;;;;;29.80;15.40;;;2.30;99.90;;;;;;5029047;28;20092;-79
2023/12/18 00:21:44;;;;;;;27.67;14.13;;;2.20;99.90;;;;;;5029989;28;20091;-79
2023/12/18 00:24:10;;;;;;;29.83;14.38;;;2.30;99.90;;;;;;5025664;28;20361;-78
2023/12/18 00:26:35;;;;;;;31.95;15.73;;;2.20;99.90;;;;;;5026284;28;20022;-79
2023/12/18 00:29:01;;;;;;;27.52;15.23;;;2.20;99.90;;;;;;5045600;28;20066;-78
2023/12/18 00:31:26;;;;;;;30.63;16.02;;;2.20;99.90;;;;;;5028798;28;20022;-79
2023/12/18 00:33:52;;;;;;;32.05;16.63;;;2.20;99.90;;;;;;5045382;28;20049;-78
2023/12/18 00:36:18;;;;;;;28.90;15.52;;;2.20;99.90;;;;;;5029969;28;20024;-78
2023/12/18 00:38:43;;;;;;;36.65;18.15;;;2.10;99.90;;;;;;5032006;28;20403;-78
2023/12/18 00:41:09;;;;;;;36.30;18.05;;;2.10;99.90;;;;;;5029900;28;20056;-79
2023/12/18 00:43:34;;;;;;;30.95;16.83;;;2.10;99.90;;;;;;5026136;28;20101;-79
2023/12/18 00:46:03;;;;;;;24.95;14.10;;;2.00;99.90;;;;;;5033121;28;20482;-79
2023/12/18 00:48:29;;;;;;;26.05;13.77;;;2.00;99.90;;;;;;5048249;28;20026;-79
2023/12/18 00:50:55;;;;;;;26.70;15.35;;;2.00;99.90;;;;;;5033047;28;20028;-78
2023/12/18 00:53:20;;;;;;;30.30;16.27;;;2.00;99.90;;;;;;5031984;28;20032;-79
2023/12/18 00:55:46;;;;;;;28.58;15.55;;;2.00;99.90;;;;;;5033100;28;20088;-79
2023/12/18 00:58:12;;;;;;;28.48;15.55;;;1.90;99.90;;;;;;5033048;28;20037;-79
2023/12/18 01:00:37;;;;;;;25.17;14.73;;;2.00;99.90;;;;;;5032945;28;20383;-78
2023/12/18 01:03:03;;;;;;;29.95;14.65;;;1.90;99.90;;;;;;5028201;28;20022;-79
2023/12/18 01:05:29;;;;;;;33.28;15.48;;;1.90;99.90;;;;;;5045793;28;20021;-79
2023/12/18 01:07:55;;;;;;;28.85;15.50;;;1.90;99.90;;;;;;5028372;28;20040;-79
2023/12/18 01:10:20;;;;;;;28.25;15.38;;;1.90;99.90;;;;;;5042223;28;20014;-79
2023/12/18 01:12:46;;;;;;;26.13;15.55;;;1.90;99.90;;;;;;5028118;28;20361;-79
2023/12/18 01:15:11;;;;;;;29.50;17.08;;;1.80;99.90;;;;;;5013366;28;20033;-79
2023/12/18 01:17:37;;;;;;;31.92;15.90;;;1.80;99.90;;;;;;5018812;28;20045;-79
2023/12/18 01:20:07;;;;;;;27.10;14.85;;;1.80;99.90;;;;;;5032267;28;20014;-78
2023/12/18 01:22:32;;;;;;;27.55;15.57;;;1.70;99.90;;;;;;5032448;28;20030;-79
2023/12/18 01:24:58;;;;;;;28.80;15.88;;;1.70;99.90;;;;;;5031432;28;20091;-79
2023/12/18 01:27:24;;;;;;;27.05;14.98;;;1.70;99.90;;;;;;5047643;28;20097;-79
2023/12/18 01:29:50;;;;;;;29.42;15.88;;;1.70;99.90;;;;;;5047912;28;20033;-78
2023/12/18 01:32:15;;;;;;;25.67;14.90;;;1.70;99.90;;;;;;5028074;28;20053;-79
2023/12/18 01:34:41;;;;;;;31.77;15.63;;;1.60;99.90;;;;;;5030906;28;20033;-78
2023/12/18 01:37:06;;;;;;;28.67;16.25;;;1.60;99.90;;;;;;5031293;28;20018;-78
2023/12/18 01:39:32;;;;;;;30.25;15.75;;;1.60;99.90;;;;;;5032520;28;20032;-78
2023/12/18 01:42:01;;;;;;;31.58;16.92;;;1.60;99.90;;;;;;5032641;28;20742;-79
2023/12/18 01:44:26;;;;;;;27.20;15.02;;;1.60;99.90;;;;;;5032475;28;20028;-78
2023/12/18 01:46:53;;;;;;;28.88;16.20;;;1.60;99.90;;;;;;5047868;28;20109;-80
2023/12/18 01:49:19;;;;;;;27.13;15.88;;;1.60;99.90;;;;;;5032463;28;20017;-80
2023/12/18 01:51:45;;;;;;;23.42;14.45;;;1.60;99.90;;;;;;5030727;28;20108;-79
2023/12/18 01:54:12;;;;;;;27.38;16.08;;;1.60;99.90;;;;;;5032600;28;20471;-77
2023/12/18 01:56:39;;;;;;;23.85;15.50;;;1.60;99.90;;;;;;5027666;28;20010;-77
2023/12/18 01:59:06;;;;;;;32.95;17.13;;;1.60;99.90;;;;;;5021782;28;20038;-77
2023/12/18 02:01:32;;;;;;;26.40;16.23;;;1.60;99.90;;;;;;5031897;28;20028;-80
2023/12/18 02:03:58;;;;;;;24.40;15.55;;;1.60;99.90;;;;;;5027336;28;20018;-79
2023/12/18 02:06:24;;;;;;;34.53;17.27;;;1.50;99.90;;;;;;5028393;28;20024;-78
2023/12/18 02:08:50;;;;;;;33.30;18.92;;;1.50;99.90;;;;;;5027630;28;20026;-79
2023/12/18 02:11:15;;;;;;;34.88;18.17;;;1.50;99.90;;;;;;5029432;28;20494;-79
2023/12/18 02:13:41;;;;;;;27.73;16.13;;;1.50;99.90;;;;;;5027681;28;20052;-79
2023/12/18 02:16:07;;;;;;;30.00;16.23;;;1.50;99.90;;;;;;5028695;28;20032;-78
2023/12/18 02:18:33;;;;;;;30.15;16.65;;;1.40;99.90;;;;;;5032099;28;20040;-78
2023/12/18 02:20:58;;;;;;;29.90;17.60;;;1.40;99.90;;;;;;5031987;28;20021;-79
2023/12/18 02:23:24;;;;;;;29.02;17.85;;;1.30;99.90;;;;;;5024102;28;20044;-78
2023/12/18 02:25:50;;;;;;;37.00;20.50;;;1.20;99.90;;;;;;5029312;28;20022;-79
2023/12/18 02:28:17;;;;;;;42.53;22.33;;;1.20;99.90;;;;;;5030640;28;20018;-79
2023/12/18 02:30:43;;;;;;;32.20;20.80;;;1.10;99.90;;;;;;5031753;28;20025;-79
2023/12/18 02:33:08;;;;;;;41.47;20.23;;;1.10;99.90;;;;;;5030823;28;20060;-79
2023/12/18 02:35:34;;;;;;;32.35;16.98;;;1.00;99.90;;;;;;5030522;28;20554;-78
2023/12/18 02:38:00;;;;;;;36.35;19.52;;;1.00;99.90;;;;;;5027431;28;20041;-78
2023/12/18 02:40:26;;;;;;;31.73;18.00;;;0.90;99.90;;;;;;5029032;28;20026;-78
2023/12/18 02:42:51;;;;;;;31.42;18.10;;;0.90;99.90;;;;;;5031074;28;20172;-78
2023/12/18 02:45:17;;;;;;;32.22;17.15;;;0.80;99.90;;;;;;5031421;28;20104;-78
2023/12/18 02:47:43;;;;;;;32.70;17.95;;;0.80;99.90;;;;;;5028604;28;20018;-78
2023/12/18 02:50:09;;;;;;;27.63;15.35;;;0.80;99.90;;;;;;5020980;28;20113;-79
2023/12/18 02:52:35;;;;;;;30.42;17.83;;;0.80;99.90;;;;;;5033794;28;20013;-78
2023/12/18 02:55:00;;;;;;;37.20;18.52;;;0.80;99.90;;;;;;5050717;28;20025;-79
2023/12/18 02:57:27;;;;;;;33.78;18.52;;;0.70;99.90;;;;;;5035136;28;20092;-79
2023/12/18 02:59:52;;;;;;;32.08;17.88;;;0.60;99.90;;;;;;5033405;28;20048;-79
2023/12/18 03:02:18;;;;;;;35.03;19.95;;;0.60;99.90;;;;;;5030707;28;20030;-79
2023/12/18 03:04:44;;;;;;;33.00;18.50;;;0.50;99.90;;;;;;5046517;28;20387;-79
2023/12/18 03:07:09;;;;;;;33.00;20.42;;;0.50;99.90;;;;;;5031460;28;20499;-78
2023/12/18 03:09:36;;;;;;;39.45;20.63;;;0.50;99.90;;;;;;5034833;28;20025;-79
2023/12/18 03:12:02;;;;;;;41.35;20.10;;;0.50;99.90;;;;;;5033465;28;20426;-79
2023/12/18 03:14:28;;;;;;;32.17;18.90;;;0.50;99.90;;;;;;5032831;28;20025;-79
2023/12/18 03:16:53;;;;;;;30.08;17.67;;;0.50;99.90;;;;;;5030145;28;20159;-80
2023/12/18 03:19:19;;;;;;;34.67;20.15;;;0.60;99.90;;;;;;5016597;28;20033;-80
2023/12/18 03:21:45;;;;;;;29.85;17.75;;;0.60;99.90;;;;;;5034729;28;20056;-80
2023/12/18 03:24:11;;;;;;;34.38;18.90;;;0.50;99.90;;;;;;5034762;28;20037;-80
2023/12/18 03:26:37;;;;;;;42.80;20.60;;;0.40;99.90;;;;;;5029914;28;20018;-80
2023/12/18 03:29:02;;;;;;;29.73;17.08;;;0.30;99.90;;;;;;5029494;28;20033;-79
2023/12/18 03:31:28;;;;;;;33.53;17.75;;;0.20;99.90;;;;;;5050017;28;20029;-79
2023/12/18 03:33:54;;;;;;;32.65;18.02;;;0.10;99.90;;;;;;5049270;28;20050;-80
2023/12/18 03:36:20;;;;;;;33.08;18.42;;;0.10;99.90;;;;;;5030075;28;20029;-78
2023/12/18 03:38:46;;;;;;;33.20;17.83;;;0.00;99.90;;;;;;5030731;28;20545;-78
2023/12/18 03:41:11;;;;;;;33.25;19.35;;;0.00;99.90;;;;;;5034597;28;20030;-78
2023/12/18 03:43:37;;;;;;;36.78;18.88;;;-0.10;99.90;;;;;;5032892;28;20022;-79
2023/12/18 03:46:03;;;;;;;34.55;19.13;;;-0.10;99.90;;;;;;5034428;28;20067;-78
2023/12/18 03:48:28;;;;;;;29.75;17.65;;;0.00;99.90;;;;;;5034293;28;20021;-79
2023/12/18 03:50:54;;;;;;;35.03;19.02;;;0.10;99.90;;;;;;5029609;28;20021;-78
2023/12/18 03:53:19;;;;;;;36.05;19.15;;;0.10;99.90;;;;;;5044956;28;20021;-79
2023/12/18 03:55:45;;;;;;;33.72;18.83;;;0.10;99.90;;;;;;5032928;28;20021;-79
2023/12/18 03:58:11;;;;;;;32.05;18.02;;;0.10;99.90;;;;;;5034013;28;20038;-79
2023/12/18 04:00:36;;;;;;;28.77;16.30;;;0.20;99.90;;;;;;5034030;28;20021;-78
2023/12/18 04:03:04;;;;;;;28.95;16.60;;;0.30;99.90;;;;;;5034041;28;20036;-78
2023/12/18 04:05:30;;;;;;;33.72;18.77;;;0.30;99.90;;;;;;5029226;28;20387;-78
2023/12/18 04:07:56;;;;;;;30.15;17.27;;;0.30;99.90;;;;;;5030254;28;20025;-79
2023/12/18 04:10:21;;;;;;;31.25;15.95;;;0.40;99.90;;;;;;5032376;28;20029;-79
2023/12/18 04:12:47;;;;;;;28.05;16.17;;;0.40;99.90;;;;;;5029924;28;20472;-79
2023/12/18 04:15:13;;;;;;;26.45;15.85;;;0.40;99.90;;;;;;5033837;28;20026;-78
2023/12/18 04:17:39;;;;;;;26.92;15.43;;;0.50;99.90;;;;;;5033282;28;20510;-78
2023/12/18 04:20:05;;;;;;;29.50;15.02;;;0.50;99.90;;;;;;5033651;28;20411;-78
2023/12/18 04:22:32;;;;;;;28.38;16.58;;;0.50;99.90;;;;;;5033392;28;20113;-80
2023/12/18 04:24:57;;;;;;;29.35;15.23;;;0.50;99.90;;;;;;5029327;28;20103;-78
2023/12/18 04:27:23;;;;;;;27.83;15.68;;;0.50;99.90;;;;;;5030670;28;20061;-79
2023/12/18 04:29:49;;;;;;;26.20;14.82;;;0.40;99.90;;;;;;5033638;28;20391;-79
2023/12/18 04:32:15;;;;;;;31.02;16.60;;;0.40;99.90;;;;;;5033058;28;20095;-80
2023/12/18 04:34:41;;;;;;;28.25;17.60;;;0.40;99.90;;;;;;5033524;28;20017;-80
2023/12/18 04:37:07;;;;;;;26.33;15.43;;;0.40;99.90;;;;;;5033136;28;20034;-80
2023/12/18 04:39:33;;;;;;;28.33;14.80;;;0.50;99.90;;;;;;5033214;28;20036;-80
2023/12/18 04:41:58;;;;;;;24.13;13.77;;;0.50;99.90;;;;;;5033269;28;20502;-79
2023/12/18 04:44:24;;;;;;;25.45;14.02;;;0.50;99.90;;;;;;5031802;28;20018;-80
2023/12/18 04:46:50;;;;;;;24.02;13.75;;;0.50;99.90;;;;;;5033030;28;20020;-79
2023/12/18 04:49:15;;;;;;;29.63;15.05;;;0.40;99.90;;;;;;5032068;28;20026;-79
2023/12/18 04:51:41;;;;;;;26.08;13.93;;;0.40;99.90;;;;;;5030882;28;20037;-80
2023/12/18 04:54:07;;;;;;;17.80;11.77;;;0.30;99.90;;;;;;5033301;28;20101;-80
2023/12/18 04:56:32;;;;;;;24.35;13.05;;;0.30;99.90;;;;;;5030415;28;20018;-80
2023/12/18 04:58:58;;;;;;;20.33;11.05;;;0.30;99.90;;;;;;5028669;28;20057;-79
2023/12/18 05:01:24;;;;;;;20.95;12.00;;;0.30;99.90;;;;;;5031891;28;20024;-79
2023/12/18 05:03:49;;;;;;;22.20;10.93;;;0.30;99.90;;;;;;5031622;28;20494;-79
2023/12/18 05:06:26;;;;;;;23.48;11.48;;;0.30;99.90;;;;;;5030805;28;20064;-79
2023/12/18 05:08:52;;;;;;;23.60;14.10;;;0.40;99.90;;;;;;5031459;28;20036;-77
2023/12/18 05:11:23;;;;;;;21.92;11.90;;;0.40;99.90;;;;;;5028191;28;20017;-78
2023/12/18 05:13:49;;;;;;;27.92;12.50;;;0.50;99.90;;;;;;5029326;28;20096;-77
2023/12/18 05:16:16;;;;;;;19.27;11.18;;;0.50;99.90;;;;;;5028260;28;20121;-77
2023/12/18 05:18:42;;;;;;;21.88;11.98;;;0.60;99.90;;;;;;5035526;28;20042;-80
2023/12/18 05:21:09;;;;;;;19.65;10.98;;;0.60;99.90;;;;;;5028125;28;20025;-80
2023/12/18 05:23:35;;;;;;;22.00;11.38;;;0.60;99.90;;;;;;5029355;28;20017;-80
2023/12/18 05:26:01;;;;;;;22.05;11.30;;;0.60;99.90;;;;;;5028014;28;20028;-79
2023/12/18 05:28:27;;;;;;;28.75;14.27;;;0.70;99.90;;;;;;5039182;28;20024;-79
2023/12/18 05:30:53;;;;;;;23.85;13.18;;;0.70;99.90;;;;;;5032270;28;20364;-80
2023/12/18 05:33:19;;;;;;;30.20;13.65;;;0.60;99.90;;;;;;5028895;28;20057;-80
2023/12/18 05:35:44;;;;;;;25.67;12.40;;;0.60;99.90;;;;;;5031012;28;20390;-80
2023/12/18 05:38:11;;;;;;;22.00;13.55;;;0.60;99.90;;;;;;5028684;28;20437;-80
2023/12/18 05:40:37;;;;;;;133.90;55.03;;;0.50;99.90;;;;;;5022345;28;20021;-80
2023/12/18 05:43:04;;;;;;;495.73;198.95;;;0.50;99.90;;;;;;5032534;28;20467;-79
2023/12/18 05:45:31;;;;;;;541.00;215.05;;;0.50;99.90;;;;;;5032453;28;20021;-79
2023/12/18 05:47:57;;;;;;;352.35;126.43;;;0.40;99.90;;;;;;5030361;28;20030;-79
2023/12/18 05:50:22;;;;;;;114.10;45.10;;;0.40;99.90;;;;;;5031083;28;20032;-77
2023/12/18 05:52:48;;;;;;;47.40;22.63;;;0.40;99.90;;;;;;5031548;28;20026;-77
2023/12/18 05:55:14;;;;;;;43.92;22.63;;;0.40;99.90;;;;;;5030719;28;20391;-77
2023/12/18 05:57:41;;;;;;;95.57;46.60;;;0.40;99.90;;;;;;5027793;28;20029;-77
2023/12/18 06:00:07;;;;;;;40.75;22.13;;;0.40;99.90;;;;;;5030535;28;20048;-77
2023/12/18 06:02:33;;;;;;;37.33;19.50;;;0.40;99.90;;;;;;5030411;28;20021;-76
2023/12/18 06:05:00;;;;;;;100.20;42.40;;;0.30;99.90;;;;;;5020795;28;20026;-77
2023/12/18 06:07:25;;;;;;;149.60;60.88;;;0.30;99.90;;;;;;5032037;28;20140;-79
2023/12/18 06:09:51;;;;;;;194.27;71.13;;;0.30;99.90;;;;;;5027808;28;20126;-78
2023/12/18 06:12:17;;;;;;;390.10;115.72;;;0.30;99.90;;;;;;5030467;28;20018;-79
2023/12/18 06:14:42;;;;;;;170.05;56.55;;;0.20;99.90;;;;;;5031987;28;20035;-77
2023/12/18 06:17:09;;;;;;;255.18;71.15;;;0.30;99.90;;;;;;5031329;28;20025;-79
2023/12/18 06:19:34;;;;;;;154.45;42.90;;;0.20;99.90;;;;;;5051071;28;20021;-79
2023/12/18 06:22:03;;;;;;;106.43;31.10;;;0.20;99.90;;;;;;5031310;28;20051;-75
2023/12/18 06:24:29;;;;;;;36.92;17.50;;;0.20;99.90;;;;;;5033767;28;20126;-77
2023/12/18 06:26:55;;;;;;;91.90;32.20;;;0.20;99.90;;;;;;5033158;28;20057;-76
2023/12/18 06:29:22;;;;;;;440.73;115.65;;;0.20;99.90;;;;;;5029262;28;20022;-76
2023/12/18 06:31:48;;;;;;;197.55;59.47;;;0.20;99.90;;;;;;5029143;28;20025;-76
2023/12/18 06:34:13;;;;;;;33.15;15.80;;;0.20;99.90;;;;;;5024963;28;20511;-76
2023/12/18 06:36:39;;;;;;;23.15;14.30;;;0.20;99.90;;;;;;5030995;28;20065;-77
2023/12/18 06:39:05;;;;;;;34.10;16.35;;;0.20;99.90;;;;;;5028806;28;20570;-77
2023/12/18 06:41:31;;;;;;;39.67;21.13;;;0.20;99.90;;;;;;5023514;28;20022;-76
2023/12/18 06:43:56;;;;;;;42.22;21.88;;;0.30;99.90;;;;;;5031706;28;20031;-77
2023/12/18 06:46:22;;;;;;;41.22;22.58;;;0.30;99.90;;;;;;5033096;28;20075;-77
2023/12/18 06:48:48;;;;;;;91.63;37.55;;;0.30;99.90;;;;;;5021727;28;20101;-77
2023/12/18 06:51:13;;;;;;;40.75;23.30;;;0.40;99.90;;;;;;5030558;28;20032;-77
2023/12/18 06:53:39;;;;;;;84.47;34.33;;;0.40;99.90;;;;;;5031198;28;20147;-77
2023/12/18 06:56:05;;;;;;;40.20;21.20;;;0.40;99.90;;;;;;5032846;28;20037;-77
2023/12/18 06:58:31;;;;;;;40.00;20.08;;;0.40;99.90;;;;;;5047641;28;20064;-77
2023/12/18 07:00:57;;;;;;;36.15;19.95;;;0.40;99.90;;;;;;5030755;28;20128;-77
2023/12/18 07:03:24;;;;;;;39.17;18.88;;;0.40;99.90;;;;;;5029630;28;20032;-78
2023/12/18 07:05:49;;;;;;;42.60;20.88;;;0.40;99.90;;;;;;5032051;28;20032;-77
2023/12/18 07:08:15;;;;;;;38.55;20.17;;;0.50;99.90;;;;;;5029510;28;20022;-77
2023/12/18 07:10:41;;;;;;;35.83;19.23;;;0.40;99.90;;;;;;5031032;28;20399;-77
2023/12/18 07:13:06;;;;;;;34.03;19.35;;;0.40;99.90;;;;;;5029482;28;20430;-77
2023/12/18 07:15:32;;;;;;;285.52;89.55;;;0.50;99.90;;;;;;5031351;28;20017;-77
2023/12/18 07:18:01;;;;;;;163.00;50.70;;;0.50;99.90;;;;;;5033437;28;20549;-77
2023/12/18 07:20:26;;;;;;;295.13;92.28;;;0.50;99.90;;;;;;5030289;28;20025;-77
2023/12/18 07:22:52;;;;;;;212.35;70.88;;;0.50;99.90;;;;;;5028769;28;20403;-78
2023/12/18 07:25:18;;;;;;;94.00;34.75;;;0.50;99.90;;;;;;5034640;28;20479;-78
2023/12/18 07:27:44;;;;;;;30.50;16.98;;;0.50;99.90;;;;;;5029592;28;20413;-78
2023/12/18 07:30:11;;;;;;;35.65;17.50;;;0.50;99.90;;;;;;5033292;28;20025;-78
2023/12/18 07:32:37;;;;;;;106.68;43.08;;;0.50;99.90;;;;;;5022247;28;20056;-77
2023/12/18 07:35:04;;;;;;;41.47;23.58;;;0.60;99.90;;;;;;5049912;28;20383;-78
2023/12/18 07:37:31;;;;;;;43.25;21.17;;;0.60;99.90;;;;;;5030000;28;20026;-78
2023/12/18 07:39:58;;;;;;;198.13;72.18;;;0.70;99.90;;;;;;5042769;28;20100;-78
2023/12/18 07:42:24;;;;;;;231.85;83.75;;;0.80;99.90;;;;;;5023349;28;20033;-78
2023/12/18 07:44:50;;;;;;;119.45;47.92;;;0.80;99.90;;;;;;5034263;28;20418;-78
2023/12/18 07:47:15;;;;;;;92.10;41.58;;;0.80;99.90;;;;;;5030023;28;20022;-78
2023/12/18 07:49:41;;;;;;;80.55;38.63;;;0.90;99.90;;;;;;5033882;28;20455;-78
2023/12/18 07:52:07;;;;;;;50.83;24.35;;;1.00;99.90;;;;;;5016807;28;20124;-78
2023/12/18 07:54:32;;;;;;;44.30;23.13;;;1.10;99.90;;;;;;5026042;28;20490;-78
2023/12/18 07:56:58;;;;;;;36.05;20.23;;;1.10;99.90;;;;;;5029647;28;20053;-78
2023/12/18 07:59:24;;;;;;;39.90;20.45;;;1.20;99.90;;;;;;5025899;28;20026;-78
2023/12/18 08:01:50;;;;;;;39.05;19.98;;;1.20;99.90;;;;;;5033987;28;20014;-78
2023/12/18 08:04:15;;;;;;;44.95;22.75;;;1.30;99.90;;;;;;5030334;28;20030;-78
2023/12/18 08:06:41;;;;;;;36.60;20.67;;;1.40;99.90;;;;;;5033680;28;20024;-78
2023/12/18 08:09:07;;;;;;;88.32;44.10;;;1.50;99.90;;;;;;5029629;28;20038;-78
2023/12/18 08:11:33;;;;;;;40.83;20.73;;;1.60;99.90;;;;;;5032346;28;20052;-78
2023/12/18 08:13:59;;;;;;;47.60;23.33;;;1.70;99.90;;;;;;5029571;28;20022;-79
2023/12/18 08:16:25;;;;;;;40.55;19.75;;;1.80;99.90;;;;;;5025859;28;20108;-78
2023/12/18 08:18:50;;;;;;;33.15;19.95;;;1.90;99.90;;;;;;5033445;28;20079;-79
2023/12/18 08:21:16;;;;;;;39.10;18.92;;;2.00;99.90;;;;;;5033801;28;20018;-78
2023/12/18 08:23:42;;;;;;;50.80;30.08;;;2.10;99.90;;;;;;5029138;28;20091;-78
2023/12/18 08:26:11;;;;;;;39.40;20.83;;;2.20;99.90;;;;;;5033420;28;20471;-78
2023/12/18 08:28:41;;;;;;;36.00;18.05;;;2.30;99.90;;;;;;5032306;28;20029;-78
2023/12/18 08:31:07;;;;;;;29.90;16.92;;;2.40;99.90;;;;;;5033644;28;20479;-79
2023/12/18 08:33:32;;;;;;;30.95;18.48;;;2.50;99.90;;;;;;5033217;28;20053;-78
2023/12/18 08:35:58;;;;;;;31.42;16.98;;;2.60;99.90;;;;;;5028911;28;20018;-78
2023/12/18 08:38:23;;;;;;;26.17;15.63;;;2.70;99.90;;;;;;5028046;28;20034;-78
2023/12/18 08:40:49;;;;;;;30.02;14.85;;;2.80;99.90;;;;;;5033444;28;20026;-78
2023/12/18 08:43:15;;;;;;;27.25;16.38;;;2.90;99.90;;;;;;5031881;28;20037;-78
2023/12/18 08:45:41;;;;;;;26.05;13.48;;;3.00;99.90;;;;;;5047980;28;20071;-79
2023/12/18 08:48:07;;;;;;;26.00;14.35;;;3.10;99.90;;;;;;5033515;28;20357;-79
2023/12/18 08:50:33;;;;;;;21.77;12.65;;;3.20;99.90;;;;;;5033334;28;20025;-78
2023/12/18 08:52:59;;;;;;;21.63;12.75;;;3.30;99.90;;;;;;5031744;28;20021;-78
2023/12/18 08:55:24;;;;;;;23.40;11.95;;;3.40;99.90;;;;;;5028691;28;20018;-78
2023/12/18 08:57:51;;;;;;;20.90;11.52;;;3.60;99.90;;;;;;5027616;28;20046;-78
2023/12/18 09:00:16;;;;;;;19.55;10.32;;;3.60;99.90;;;;;;5023407;28;20025;-78
2023/12/18 09:02:42;;;;;;;18.70;10.65;;;3.80;99.90;;;;;;5025696;28;20029;-78
2023/12/18 09:05:09;;;;;;;18.27;9.77;;;3.90;99.90;;;;;;5033031;28;20060;-78
2023/12/18 09:07:34;;;;;;;15.98;9.77;;;4.00;99.90;;;;;;5032941;28;20087;-78
2023/12/18 09:10:00;;;;;;;17.13;8.95;;;4.10;99.90;;;;;;5033163;28;20026;-78
2023/12/18 09:12:26;;;;;;;16.55;9.05;;;4.20;99.90;;;;;;5031705;28;20033;-79
2023/12/18 09:14:51;;;;;;;19.58;9.18;;;4.30;99.90;;;;;;5031392;28;20083;-78
2023/12/18 09:17:17;;;;;;;16.85;8.15;;;4.50;99.90;;;;;;5032903;28;20044;-78
2023/12/18 09:19:42;;;;;;;15.65;8.05;;;4.60;99.90;;;;;;5031430;28;20029;-78
2023/12/18 09:22:08;;;;;;;12.38;7.57;;;4.70;99.90;;;;;;5031500;28;20112;-79
2023/12/18 09:24:34;;;;;;;14.30;8.15;;;4.90;99.90;;;;;;5032612;28;20025;-78
2023/12/18 09:27:00;;;;;;;13.20;7.00;;;5.00;99.90;;;;;;5031482;28;20021;-78
2023/12/18 09:29:26;;;;;;;11.18;7.50;;;5.10;99.90;;;;;;5032546;28;20109;-78
2023/12/18 09:31:52;;;;;;;11.82;7.07;;;5.20;99.90;;;;;;5031318;28;20053;-78
2023/12/18 09:34:17;;;;;;;12.05;7.00;;;5.30;99.90;;;;;;5032618;28;20112;-78
2023/12/18 09:36:44;;;;;;;9.98;7.28;;;5.40;99.90;;;;;;5032285;28;20022;-78
2023/12/18 09:39:10;;;;;;;13.18;7.82;;;5.50;99.90;;;;;;5031256;28;20037;-78
2023/12/18 09:41:36;;;;;;;13.57;7.15;;;5.60;99.90;;;;;;5031104;28;20100;-79
2023/12/18 09:44:02;;;;;;;14.40;7.38;;;5.70;99.90;;;;;;5027947;28;20025;-78
2023/12/18 09:46:27;;;;;;;13.57;6.80;;;5.80;99.90;;;;;;5026118;28;20026;-78
2023/12/18 09:48:54;;;;;;;12.63;7.18;;;5.90;99.90;;;;;;5032841;28;20064;-79
2023/12/18 09:51:24;;;;;;;12.48;7.72;;;6.00;99.90;;;;;;5036784;28;20536;-78
2023/12/18 09:53:54;;;;;;;10.68;7.03;;;6.10;99.90;;;;;;5032472;28;20022;-79
2023/12/18 09:56:21;;;;;;;11.23;6.80;;;6.10;99.90;;;;;;5032358;28;20026;-79
2023/12/18 09:58:47;;;;;;;10.93;6.53;;;6.20;99.90;;;;;;5030701;28;20060;-78
2023/12/18 10:01:16;;;;;;;11.48;6.68;;;6.20;99.90;;;;;;5032626;28;20025;-78
2023/12/18 10:03:42;;;;;;;12.35;8.60;;;6.40;99.90;;;;;;5030703;28;20037;-78
2023/12/18 10:06:08;;;;;;;9.88;6.80;;;6.40;99.90;;;;;;5029496;28;20032;-79
2023/12/18 10:08:35;;;;;;;11.00;7.05;;;6.40;99.90;;;;;;5029573;28;20025;-79
2023/12/18 10:11:01;;;;;;;13.23;6.72;;;6.50;99.90;;;;;;5031706;28;20032;-79
2023/12/18 10:13:27;;;;;;;12.13;6.43;;;6.60;99.90;;;;;;5021223;28;20069;-79
2023/12/18 10:15:54;;;;;;;12.18;7.63;;;6.70;99.90;;;;;;5022983;28;20017;-79
2023/12/18 10:18:22;;;;;;;10.60;6.53;;;6.70;99.90;;;;;;5031567;28;20061;-78
2023/12/18 10:20:49;;;;;;;11.68;7.10;;;6.80;99.90;;;;;;5033318;28;20017;-79
2023/12/18 10:23:14;;;;;;;13.43;7.00;;;6.80;99.90;;;;;;5035858;28;20450;-79
2023/12/18 10:25:40;;;;;;;9.60;7.15;;;6.90;99.90;;;;;;5031192;28;20042;-78
2023/12/18 10:28:07;;;;;;;12.15;7.68;;;6.90;99.90;;;;;;5031761;28;20025;-78
2023/12/18 10:30:34;;;;;;;12.15;7.35;;;7.00;99.90;;;;;;5034765;28;20539;-79
2023/12/18 10:33:06;;;;;;;14.15;8.18;;;7.10;99.90;;;;;;5033987;28;20041;-79
2023/12/18 10:35:32;;;;;;;16.23;9.13;;;7.10;99.90;;;;;;5035669;28;20086;-79
2023/12/18 10:38:00;;;;;;;11.70;8.05;;;7.20;99.90;;;;;;5022185;28;20137;-79
2023/12/18 10:40:27;;;;;;;20.73;9.27;;;7.20;99.90;;;;;;5031280;28;20357;-79
2023/12/18 10:43:04;;;;;;;16.08;8.80;;;7.30;99.90;;;;;;5033648;28;20045;-79
2023/12/18 10:45:30;;;;;;;11.57;7.72;;;7.40;99.90;;;;;;5031432;28;20018;-79
2023/12/18 10:47:57;;;;;;;15.60;7.53;;;7.40;99.90;;;;;;5035372;28;20036;-79
2023/12/18 10:50:24;;;;;;;12.82;7.05;;;7.40;99.90;;;;;;5035416;28;20025;-79
2023/12/18 10:52:54;;;;;;;12.65;7.40;;;7.40;99.90;;;;;;5024835;28;20026;-79
2023/12/18 10:55:20;;;;;;;14.00;7.10;;;7.50;99.90;;;;;;5035292;28;20108;-79
2023/12/18 10:57:49;;;;;;;14.80;6.55;;;7.60;99.90;;;;;;5033934;28;20108;-79
2023/12/18 11:00:15;;;;;;;11.68;6.65;;;7.70;99.10;;;;;;5031763;28;20022;-79
2023/12/18 11:02:42;;;;;;;12.65;7.43;;;7.70;95.00;;;;;;5030933;28;20030;-79
2023/12/18 11:05:08;;;;;;;16.50;7.35;;;7.80;96.70;;;;;;5031507;28;20546;-78
2023/12/18 11:07:34;;;;;;;11.30;6.95;;;7.90;96.30;;;;;;5021412;28;20030;-79
2023/12/18 11:10:00;;;;;;;10.93;6.68;;;7.90;94.70;;;;;;5034858;28;20099;-78
2023/12/18 11:12:27;;;;;;;11.23;6.88;;;8.00;93.70;;;;;;5023269;28;20064;-78
2023/12/18 11:15:13;;;;;;;13.10;7.00;;;8.00;92.70;;;;;;5025738;28;20491;-79
2023/12/18 11:17:52;;;;;;;16.40;7.00;;;8.10;93.10;;;;;;5017773;28;20037;-79
2023/12/18 11:20:24;;;;;;;13.90;7.88;;;8.20;94.10;;;;;;5021735;28;20033;-79
2023/12/18 11:22:55;;;;;;;17.08;8.07;;;8.20;93.60;;;;;;5024840;28;20022;-80
2023/12/18 11:25:20;;;;;;;12.13;8.00;;;8.20;92.50;;;;;;5030466;28;20373;-79
2023/12/18 11:27:51;;;;;;;11.65;7.00;;;8.30;91.10;;;;;;5026410;28;20025;-79
2023/12/18 11:30:34;;;;;;;14.50;7.90;;;8.30;90.40;;;;;;5026798;28;20490;-79
2023/12/18 11:33:19;;;;;;;15.85;7.68;;;8.40;87.30;;;;;;5025396;28;20088;-79
2023/12/18 11:35:48;;;;;;;14.70;8.23;;;8.40;88.50;;;;;;5028084;28;20091;-79
2023/12/18 11:38:17;;;;;;;19.60;8.40;;;8.40;88.30;;;;;;5028822;28;20037;-81
2023/12/18 11:40:44;;;;;;;17.58;8.48;;;8.40;86.80;;;;;;5023345;28;20030;-80
2023/12/18 11:43:34;;;;;;;15.68;8.13;;;8.50;86.20;;;;;;5031946;28;20025;-81
2023/12/18 11:46:01;;;;;;;16.30;7.65;;;8.50;86.30;;;;;;5026026;28;20513;-80
2023/12/18 11:48:27;;;;;;;17.20;7.93;;;8.50;87.10;;;;;;5028192;28;20452;-80
2023/12/18 11:50:52;;;;;;;14.95;7.40;;;8.60;87.60;;;;;;5029918;28;20056;-81
2023/12/18 11:53:22;;;;;;;13.23;7.80;;;8.60;86.40;;;;;;5032472;28;20025;-82
2023/12/18 11:55:52;;;;;;;12.43;6.55;;;8.70;83.50;;;;;;5020990;28;20076;-80
2023/12/18 11:58:24;;;;;;;12.88;7.22;;;8.70;82.90;;;;;;5027395;28;20075;-82
2023/12/18 12:00:50;;;;;;;13.25;7.88;;;8.70;82.80;;;;;;5031904;28;20076;-82
2023/12/18 12:03:17;;;;;;;18.02;7.47;;;8.80;81.30;;;;;;5031612;28;20029;-81
2023/12/18 12:05:45;;;;;;;17.23;7.65;;;8.80;81.20;;;;;;5021114;28;20084;-81
2023/12/18 12:08:11;;;;;;;15.38;7.22;;;8.70;80.50;;;;;;5030924;28;20479;-81
2023/12/18 12:10:45;;;;;;;11.80;7.68;;;8.80;81.30;;;;;;5025411;28;20432;-81
2023/12/18 12:13:21;;;;;;;11.80;7.78;;;8.80;80.80;;;;;;5026412;28;20040;-81
2023/12/18 12:15:58;;;;;;;9.73;6.32;;;8.70;81.40;;;;;;5030776;28;20032;-80
2023/12/18 12:18:35;;;;;;;10.48;6.97;;;8.80;80.60;;;;;;5029949;28;20065;-81
2023/12/18 12:21:01;;;;;;;9.00;6.40;;;8.70;80.70;;;;;;5031473;28;20037;-81
2023/12/18 12:23:28;;;;;;;10.05;6.72;;;8.80;81.20;;;;;;5020043;28;20024;-81
2023/12/18 12:26:01;;;;;;;13.10;6.78;;;8.70;80.90;;;;;;5022681;28;20124;-81
2023/12/18 12:28:32;;;;;;;10.88;7.22;;;8.70;81.40;;;;;;5029703;28;20028;-80
2023/12/18 12:30:59;;;;;;;10.68;6.43;;;8.70;81.00;;;;;;5030920;28;20033;-80
2023/12/18 12:33:42;;;;;;;12.15;7.25;;;8.70;81.60;;;;;;5076993;27;20443;-81
2023/12/18 12:36:08;;;;;;;17.25;10.90;;;8.70;81.60;;;;;;5051358;28;20043;-81